sensor_id;sensor_type;location;lat;lon;timestamp;temperature;humidity
65876;HTU21D;52657;51.128;5.938;2023-04-24T00:02:05;13.30;63.44
65876;HTU21D;52657;51.128;5.938;2023-04-24T00:04:32;13.36;63.35
65876;HTU21D;52657;51.128;5.938;2023-04-24T00:06:57;13.33;63.34
65876;HTU21D;52657;51.128;5.938;2023-04-24T00:09:26;13.31;63.28
65876;HTU21D;52657;51.128;5.938;2023-04-24T00:11:52;13.25;63.45
65876;HTU21D;52657;51.128;5.938;2023-04-24T00:14:18;13.16;63.51
65876;HTU21D;52657;51.128;5.938;2023-04-24T00:16:43;13.10;63.76
65876;HTU21D;52657;51.128;5.938;2023-04-24T00:19:09;13.08;63.88
65876;HTU21D;52657;51.128;5.938;2023-04-24T00:21:36;13.14;63.87
65876;HTU21D;52657;51.128;5.938;2023-04-24T00:24:01;13.17;63.84
65876;HTU21D;52657;51.128;5.938;2023-04-24T00:26:27;13.16;63.87
65876;HTU21D;52657;51.128;5.938;2023-04-24T00:28:53;13.15;63.89
65876;HTU21D;52657;51.128;5.938;2023-04-24T00:31:19;13.20;63.78
65876;HTU21D;52657;51.128;5.938;2023-04-24T00:33:45;13.20;63.78
65876;HTU21D;52657;51.128;5.938;2023-04-24T00:36:12;13.22;63.85
65876;HTU21D;52657;51.128;5.938;2023-04-24T00:38:39;13.24;63.81
65876;HTU21D;52657;51.128;5.938;2023-04-24T00:41:05;13.22;63.94
65876;HTU21D;52657;51.128;5.938;2023-04-24T00:43:30;13.23;63.91
65876;HTU21D;52657;51.128;5.938;2023-04-24T00:45:57;13.24;63.90
65876;HTU21D;52657;51.128;5.938;2023-04-24T00:48:23;13.30;63.86
65876;HTU21D;52657;51.128;5.938;2023-04-24T00:50:50;13.29;63.75
65876;HTU21D;52657;51.128;5.938;2023-04-24T00:53:15;13.27;63.86
65876;HTU21D;52657;51.128;5.938;2023-04-24T00:55:41;13.23;63.88
65876;HTU21D;52657;51.128;5.938;2023-04-24T00:58:07;13.22;64.08
65876;HTU21D;52657;51.128;5.938;2023-04-24T01:00:34;13.16;64.16
65876;HTU21D;52657;51.128;5.938;2023-04-24T01:03:04;13.08;64.47
65876;HTU21D;52657;51.128;5.938;2023-04-24T01:05:31;13.04;64.72
65876;HTU21D;52657;51.128;5.938;2023-04-24T01:07:59;12.99;64.98
65876;HTU21D;52657;51.128;5.938;2023-04-24T01:10:27;13.02;65.01
65876;HTU21D;52657;51.128;5.938;2023-04-24T01:12:55;13.04;64.91
65876;HTU21D;52657;51.128;5.938;2023-04-24T01:15:21;13.04;64.88
65876;HTU21D;52657;51.128;5.938;2023-04-24T01:17:46;13.06;64.79
65876;HTU21D;52657;51.128;5.938;2023-04-24T01:20:13;13.00;64.89
65876;HTU21D;52657;51.128;5.938;2023-04-24T01:22:40;13.00;64.98
65876;HTU21D;52657;51.128;5.938;2023-04-24T01:25:06;12.99;65.04
65876;HTU21D;52657;51.128;5.938;2023-04-24T01:27:32;13.00;65.03
65876;HTU21D;52657;51.128;5.938;2023-04-24T01:29:58;12.95;65.11
65876;HTU21D;52657;51.128;5.938;2023-04-24T01:32:25;13.00;65.28
65876;HTU21D;52657;51.128;5.938;2023-04-24T01:34:51;13.08;65.10
65876;HTU21D;52657;51.128;5.938;2023-04-24T01:37:17;13.07;65.01
65876;HTU21D;52657;51.128;5.938;2023-04-24T01:39:44;13.04;65.11
65876;HTU21D;52657;51.128;5.938;2023-04-24T01:42:10;13.04;65.14
65876;HTU21D;52657;51.128;5.938;2023-04-24T01:44:36;13.02;65.15
65876;HTU21D;52657;51.128;5.938;2023-04-24T01:47:03;13.02;65.32
65876;HTU21D;52657;51.128;5.938;2023-04-24T01:49:29;12.96;65.40
65876;HTU21D;52657;51.128;5.938;2023-04-24T01:51:56;12.91;65.50
65876;HTU21D;52657;51.128;5.938;2023-04-24T01:54:22;12.87;65.69
65876;HTU21D;52657;51.128;5.938;2023-04-24T01:56:48;12.87;65.76
65876;HTU21D;52657;51.128;5.938;2023-04-24T01:59:17;12.87;65.73
65876;HTU21D;52657;51.128;5.938;2023-04-24T02:01:43;12.88;65.74
65876;HTU21D;52657;51.128;5.938;2023-04-24T02:04:09;12.91;65.74
65876;HTU21D;52657;51.128;5.938;2023-04-24T02:06:35;12.88;65.74
65876;HTU21D;52657;51.128;5.938;2023-04-24T02:09:00;12.93;65.74
65876;HTU21D;52657;51.128;5.938;2023-04-24T02:11:29;13.00;65.69
65876;HTU21D;52657;51.128;5.938;2023-04-24T02:13:54;12.97;65.50
65876;HTU21D;52657;51.128;5.938;2023-04-24T02:16:21;12.93;65.53
65876;HTU21D;52657;51.128;5.938;2023-04-24T02:18:47;12.94;65.67
65876;HTU21D;52657;51.128;5.938;2023-04-24T02:21:12;12.94;65.65
65876;HTU21D;52657;51.128;5.938;2023-04-24T02:23:38;12.94;65.67
65876;HTU21D;52657;51.128;5.938;2023-04-24T02:26:04;12.90;65.72
65876;HTU21D;52657;51.128;5.938;2023-04-24T02:28:30;12.87;65.89
65876;HTU21D;52657;51.128;5.938;2023-04-24T02:30:55;12.91;65.86
65876;HTU21D;52657;51.128;5.938;2023-04-24T02:33:21;12.85;65.75
65876;HTU21D;52657;51.128;5.938;2023-04-24T02:35:47;12.84;65.90
65876;HTU21D;52657;51.128;5.938;2023-04-24T02:38:13;12.87;65.99
65876;HTU21D;52657;51.128;5.938;2023-04-24T02:40:38;12.89;65.82
65876;HTU21D;52657;51.128;5.938;2023-04-24T02:43:04;12.92;65.72
65876;HTU21D;52657;51.128;5.938;2023-04-24T02:45:30;12.96;65.70
65876;HTU21D;52657;51.128;5.938;2023-04-24T02:47:55;12.94;65.56
65876;HTU21D;52657;51.128;5.938;2023-04-24T02:50:21;12.86;65.66
65876;HTU21D;52657;51.128;5.938;2023-04-24T02:52:47;12.80;65.98
65876;HTU21D;52657;51.128;5.938;2023-04-24T02:55:13;12.84;65.96
65876;HTU21D;52657;51.128;5.938;2023-04-24T02:57:38;12.88;65.91
65876;HTU21D;52657;51.128;5.938;2023-04-24T03:00:05;12.82;66.01
65876;HTU21D;52657;51.128;5.938;2023-04-24T03:02:32;12.80;66.19
65876;HTU21D;52657;51.128;5.938;2023-04-24T03:04:58;12.76;66.54
65876;HTU21D;52657;51.128;5.938;2023-04-24T03:07:25;12.77;66.34
65876;HTU21D;52657;51.128;5.938;2023-04-24T03:09:50;12.74;66.36
65876;HTU21D;52657;51.128;5.938;2023-04-24T03:12:16;12.70;66.58
65876;HTU21D;52657;51.128;5.938;2023-04-24T03:14:43;12.64;66.58
65876;HTU21D;52657;51.128;5.938;2023-04-24T03:17:09;12.63;66.63
65876;HTU21D;52657;51.128;5.938;2023-04-24T03:19:35;12.66;66.53
65876;HTU21D;52657;51.128;5.938;2023-04-24T03:22:06;12.69;66.52
65876;HTU21D;52657;51.128;5.938;2023-04-24T03:24:34;12.70;66.53
65876;HTU21D;52657;51.128;5.938;2023-04-24T03:27:00;12.65;66.42
65876;HTU21D;52657;51.128;5.938;2023-04-24T03:30:06;12.63;66.47
65876;HTU21D;52657;51.128;5.938;2023-04-24T03:32:49;12.63;66.43
65876;HTU21D;52657;51.128;5.938;2023-04-24T03:35:20;12.63;66.26
65876;HTU21D;52657;51.128;5.938;2023-04-24T03:37:47;12.69;66.06
65876;HTU21D;52657;51.128;5.938;2023-04-24T03:40:39;12.69;65.71
65876;HTU21D;52657;51.128;5.938;2023-04-24T03:43:15;12.61;65.91
65876;HTU21D;52657;51.128;5.938;2023-04-24T03:45:41;12.59;66.04
65876;HTU21D;52657;51.128;5.938;2023-04-24T03:48:08;12.56;66.05
65876;HTU21D;52657;51.128;5.938;2023-04-24T03:50:33;12.49;66.28
65876;HTU21D;52657;51.128;5.938;2023-04-24T03:53:00;12.50;66.45
65876;HTU21D;52657;51.128;5.938;2023-04-24T03:55:35;12.46;66.64
65876;HTU21D;52657;51.128;5.938;2023-04-24T03:58:02;12.47;66.88
65876;HTU21D;52657;51.128;5.938;2023-04-24T04:00:28;12.50;66.91
65876;HTU21D;52657;51.128;5.938;2023-04-24T04:03:12;12.43;67.28
65876;HTU21D;52657;51.128;5.938;2023-04-24T04:05:40;12.37;67.55
65876;HTU21D;52657;51.128;5.938;2023-04-24T04:08:06;12.29;68.04
65876;HTU21D;52657;51.128;5.938;2023-04-24T04:10:32;12.23;68.51
65876;HTU21D;52657;51.128;5.938;2023-04-24T04:12:58;12.21;69.04
65876;HTU21D;52657;51.128;5.938;2023-04-24T04:15:24;12.11;69.16
65876;HTU21D;52657;51.128;5.938;2023-04-24T04:17:50;12.14;69.57
65876;HTU21D;52657;51.128;5.938;2023-04-24T04:20:15;12.17;69.62
65876;HTU21D;52657;51.128;5.938;2023-04-24T04:22:41;12.11;69.63
65876;HTU21D;52657;51.128;5.938;2023-04-24T04:25:09;12.08;69.94
65876;HTU21D;52657;51.128;5.938;2023-04-24T04:27:35;12.03;70.28
65876;HTU21D;52657;51.128;5.938;2023-04-24T04:30:07;11.94;70.46
65876;HTU21D;52657;51.128;5.938;2023-04-24T04:32:42;11.87;70.81
65876;HTU21D;52657;51.128;5.938;2023-04-24T04:35:07;11.88;71.03
65876;HTU21D;52657;51.128;5.938;2023-04-24T04:37:35;11.94;71.05
65876;HTU21D;52657;51.128;5.938;2023-04-24T04:40:08;11.91;70.97
65876;HTU21D;52657;51.128;5.938;2023-04-24T04:42:45;11.93;71.00
65876;HTU21D;52657;51.128;5.938;2023-04-24T04:45:12;11.97;70.77
65876;HTU21D;52657;51.128;5.938;2023-04-24T04:47:51;11.99;70.55
65876;HTU21D;52657;51.128;5.938;2023-04-24T04:50:17;11.97;70.54
65876;HTU21D;52657;51.128;5.938;2023-04-24T04:52:44;12.00;70.60
65876;HTU21D;52657;51.128;5.938;2023-04-24T04:55:20;12.05;70.48
65876;HTU21D;52657;51.128;5.938;2023-04-24T04:58:07;12.12;70.31
65876;HTU21D;52657;51.128;5.938;2023-04-24T05:00:33;12.12;70.32
65876;HTU21D;52657;51.128;5.938;2023-04-24T05:03:03;12.03;70.69
65876;HTU21D;52657;51.128;5.938;2023-04-24T05:05:29;11.96;71.32
65876;HTU21D;52657;51.128;5.938;2023-04-24T05:07:55;11.93;71.71
65876;HTU21D;52657;51.128;5.938;2023-04-24T05:10:21;11.94;71.55
65876;HTU21D;52657;51.128;5.938;2023-04-24T05:12:47;11.93;71.50
65876;HTU21D;52657;51.128;5.938;2023-04-24T05:15:13;11.84;71.70
65876;HTU21D;52657;51.128;5.938;2023-04-24T05:17:39;11.84;71.85
65876;HTU21D;52657;51.128;5.938;2023-04-24T05:20:07;11.84;72.05
65876;HTU21D;52657;51.128;5.938;2023-04-24T05:22:33;11.86;72.33
65876;HTU21D;52657;51.128;5.938;2023-04-24T05:24:59;11.76;72.40
65876;HTU21D;52657;51.128;5.938;2023-04-24T05:27:34;11.72;72.73
65876;HTU21D;52657;51.128;5.938;2023-04-24T05:30:03;11.63;73.05
65876;HTU21D;52657;51.128;5.938;2023-04-24T05:32:28;11.62;73.15
65876;HTU21D;52657;51.128;5.938;2023-04-24T05:34:54;11.61;73.34
65876;HTU21D;52657;51.128;5.938;2023-04-24T05:37:21;11.68;73.39
65876;HTU21D;52657;51.128;5.938;2023-04-24T05:39:46;11.69;73.41
65876;HTU21D;52657;51.128;5.938;2023-04-24T05:42:12;11.68;73.41
65876;HTU21D;52657;51.128;5.938;2023-04-24T05:44:38;11.57;73.96
65876;HTU21D;52657;51.128;5.938;2023-04-24T05:47:04;11.57;73.80
65876;HTU21D;52657;51.128;5.938;2023-04-24T05:49:29;11.57;73.81
65876;HTU21D;52657;51.128;5.938;2023-04-24T05:51:56;11.55;74.00
65876;HTU21D;52657;51.128;5.938;2023-04-24T05:54:22;11.62;74.17
65876;HTU21D;52657;51.128;5.938;2023-04-24T05:56:49;11.64;73.96
65876;HTU21D;52657;51.128;5.938;2023-04-24T05:59:23;11.68;74.03
65876;HTU21D;52657;51.128;5.938;2023-04-24T06:01:50;11.69;74.08
65876;HTU21D;52657;51.128;5.938;2023-04-24T06:04:19;11.68;74.03
65876;HTU21D;52657;51.128;5.938;2023-04-24T06:06:44;11.68;74.02
65876;HTU21D;52657;51.128;5.938;2023-04-24T06:09:11;11.69;73.67
65876;HTU21D;52657;51.128;5.938;2023-04-24T06:11:38;11.69;73.62
65876;HTU21D;52657;51.128;5.938;2023-04-24T06:14:05;11.70;73.77
65876;HTU21D;52657;51.128;5.938;2023-04-24T06:16:36;11.75;73.80
65876;HTU21D;52657;51.128;5.938;2023-04-24T06:19:11;11.76;73.57
65876;HTU21D;52657;51.128;5.938;2023-04-24T06:21:37;11.73;73.64
65876;HTU21D;52657;51.128;5.938;2023-04-24T06:24:03;11.71;73.67
65876;HTU21D;52657;51.128;5.938;2023-04-24T06:26:30;11.70;73.46
65876;HTU21D;52657;51.128;5.938;2023-04-24T06:28:56;11.70;73.65
65876;HTU21D;52657;51.128;5.938;2023-04-24T06:31:24;11.77;73.65
65876;HTU21D;52657;51.128;5.938;2023-04-24T06:33:49;11.73;73.59
65876;HTU21D;52657;51.128;5.938;2023-04-24T06:36:15;11.67;72.78
65876;HTU21D;52657;51.128;5.938;2023-04-24T06:38:41;11.59;72.57
65876;HTU21D;52657;51.128;5.938;2023-04-24T06:41:07;11.57;72.66
65876;HTU21D;52657;51.128;5.938;2023-04-24T06:43:33;11.58;72.53
65876;HTU21D;52657;51.128;5.938;2023-04-24T06:46:00;11.59;72.22
65876;HTU21D;52657;51.128;5.938;2023-04-24T06:48:26;11.61;71.71
65876;HTU21D;52657;51.128;5.938;2023-04-24T06:50:52;11.55;71.50
65876;HTU21D;52657;51.128;5.938;2023-04-24T06:53:18;11.49;71.36
65876;HTU21D;52657;51.128;5.938;2023-04-24T06:55:44;11.41;71.68
65876;HTU21D;52657;51.128;5.938;2023-04-24T06:58:12;11.38;71.55
65876;HTU21D;52657;51.128;5.938;2023-04-24T07:00:38;11.34;71.47
65876;HTU21D;52657;51.128;5.938;2023-04-24T07:03:03;11.30;71.51
65876;HTU21D;52657;51.128;5.938;2023-04-24T07:05:31;11.28;71.53
65876;HTU21D;52657;51.128;5.938;2023-04-24T07:07:56;11.27;71.60
65876;HTU21D;52657;51.128;5.938;2023-04-24T07:10:24;11.25;71.71
65876;HTU21D;52657;51.128;5.938;2023-04-24T07:12:51;11.24;71.78
65876;HTU21D;52657;51.128;5.938;2023-04-24T07:15:17;11.24;72.01
65876;HTU21D;52657;51.128;5.938;2023-04-24T07:17:42;11.22;72.43
65876;HTU21D;52657;51.128;5.938;2023-04-24T07:20:10;11.18;72.59
65876;HTU21D;52657;51.128;5.938;2023-04-24T07:22:40;11.14;73.15
65876;HTU21D;52657;51.128;5.938;2023-04-24T07:25:06;11.16;73.61
65876;HTU21D;52657;51.128;5.938;2023-04-24T07:27:33;11.12;73.86
65876;HTU21D;52657;51.128;5.938;2023-04-24T07:29:59;11.17;73.85
65876;HTU21D;52657;51.128;5.938;2023-04-24T07:32:25;11.18;73.89
65876;HTU21D;52657;51.128;5.938;2023-04-24T07:34:51;11.25;73.70
65876;HTU21D;52657;51.128;5.938;2023-04-24T07:37:16;11.24;73.76
65876;HTU21D;52657;51.128;5.938;2023-04-24T07:39:42;11.26;73.83
65876;HTU21D;52657;51.128;5.938;2023-04-24T07:42:08;11.22;73.60
65876;HTU21D;52657;51.128;5.938;2023-04-24T07:44:34;11.20;73.52
65876;HTU21D;52657;51.128;5.938;2023-04-24T07:47:01;11.19;73.46
65876;HTU21D;52657;51.128;5.938;2023-04-24T07:49:28;11.15;73.48
65876;HTU21D;52657;51.128;5.938;2023-04-24T07:51:54;11.17;73.58
65876;HTU21D;52657;51.128;5.938;2023-04-24T07:54:20;11.16;73.50
65876;HTU21D;52657;51.128;5.938;2023-04-24T07:56:49;11.15;73.53
65876;HTU21D;52657;51.128;5.938;2023-04-24T07:59:14;11.15;73.43
65876;HTU21D;52657;51.128;5.938;2023-04-24T08:01:40;11.11;73.41
65876;HTU21D;52657;51.128;5.938;2023-04-24T08:04:06;11.14;73.38
65876;HTU21D;52657;51.128;5.938;2023-04-24T08:06:32;11.14;73.24
65876;HTU21D;52657;51.128;5.938;2023-04-24T08:08:59;11.17;73.23
65876;HTU21D;52657;51.128;5.938;2023-04-24T08:11:25;11.20;73.06
65876;HTU21D;52657;51.128;5.938;2023-04-24T08:13:52;11.12;73.38
65876;HTU21D;52657;51.128;5.938;2023-04-24T08:16:18;11.13;73.54
65876;HTU21D;52657;51.128;5.938;2023-04-24T08:18:43;11.13;73.57
65876;HTU21D;52657;51.128;5.938;2023-04-24T08:21:12;11.14;73.89
65876;HTU21D;52657;51.128;5.938;2023-04-24T08:23:42;11.19;73.84
65876;HTU21D;52657;51.128;5.938;2023-04-24T08:26:08;11.27;73.82
65876;HTU21D;52657;51.128;5.938;2023-04-24T08:28:34;11.34;74.00
65876;HTU21D;52657;51.128;5.938;2023-04-24T08:31:00;11.40;73.90
65876;HTU21D;52657;51.128;5.938;2023-04-24T08:33:26;11.44;73.86
65876;HTU21D;52657;51.128;5.938;2023-04-24T08:35:52;11.48;73.74
65876;HTU21D;52657;51.128;5.938;2023-04-24T08:38:18;11.54;73.82
65876;HTU21D;52657;51.128;5.938;2023-04-24T08:40:47;11.57;73.83
65876;HTU21D;52657;51.128;5.938;2023-04-24T08:43:16;11.62;73.97
65876;HTU21D;52657;51.128;5.938;2023-04-24T08:45:42;11.68;74.00
65876;HTU21D;52657;51.128;5.938;2023-04-24T08:48:09;11.77;73.66
65876;HTU21D;52657;51.128;5.938;2023-04-24T08:50:36;11.84;73.55
65876;HTU21D;52657;51.128;5.938;2023-04-24T08:53:03;11.88;73.61
65876;HTU21D;52657;51.128;5.938;2023-04-24T08:55:30;11.96;73.55
65876;HTU21D;52657;51.128;5.938;2023-04-24T08:57:56;12.03;73.28
65876;HTU21D;52657;51.128;5.938;2023-04-24T09:00:22;12.05;73.51
65876;HTU21D;52657;51.128;5.938;2023-04-24T09:02:49;12.16;73.48
65876;HTU21D;52657;51.128;5.938;2023-04-24T09:05:17;12.28;73.18
65876;HTU21D;52657;51.128;5.938;2023-04-24T09:07:54;12.35;72.93
65876;HTU21D;52657;51.128;5.938;2023-04-24T09:10:21;12.44;72.77
65876;HTU21D;52657;51.128;5.938;2023-04-24T09:12:47;12.48;72.82
65876;HTU21D;52657;51.128;5.938;2023-04-24T09:15:15;12.55;72.82
65876;HTU21D;52657;51.128;5.938;2023-04-24T09:17:41;12.63;72.72
65876;HTU21D;52657;51.128;5.938;2023-04-24T09:20:09;12.69;72.44
65876;HTU21D;52657;51.128;5.938;2023-04-24T09:22:36;12.69;71.75
65876;HTU21D;52657;51.128;5.938;2023-04-24T09:25:07;12.71;71.57
65876;HTU21D;52657;51.128;5.938;2023-04-24T09:27:33;12.70;70.90
65876;HTU21D;52657;51.128;5.938;2023-04-24T09:30:00;12.69;70.92
65876;HTU21D;52657;51.128;5.938;2023-04-24T09:32:26;12.72;70.97
65876;HTU21D;52657;51.128;5.938;2023-04-24T09:35:10;12.71;70.48
65876;HTU21D;52657;51.128;5.938;2023-04-24T09:37:47;12.65;70.36
65876;HTU21D;52657;51.128;5.938;2023-04-24T09:40:19;12.63;70.64
65876;HTU21D;52657;51.128;5.938;2023-04-24T09:42:51;12.64;70.32
65876;HTU21D;52657;51.128;5.938;2023-04-24T09:45:17;12.65;70.51
65876;HTU21D;52657;51.128;5.938;2023-04-24T09:47:43;12.70;70.29
65876;HTU21D;52657;51.128;5.938;2023-04-24T09:50:13;12.71;70.35
65876;HTU21D;52657;51.128;5.938;2023-04-24T09:52:41;12.70;70.03
65876;HTU21D;52657;51.128;5.938;2023-04-24T09:55:18;12.67;69.91
65876;HTU21D;52657;51.128;5.938;2023-04-24T09:57:49;12.66;70.05
65876;HTU21D;52657;51.128;5.938;2023-04-24T10:00:23;12.64;70.24
65876;HTU21D;52657;51.128;5.938;2023-04-24T10:02:50;12.60;70.25
65876;HTU21D;52657;51.128;5.938;2023-04-24T10:05:17;12.61;70.14
65876;HTU21D;52657;51.128;5.938;2023-04-24T10:07:43;12.60;70.29
65876;HTU21D;52657;51.128;5.938;2023-04-24T10:10:11;12.66;70.02
65876;HTU21D;52657;51.128;5.938;2023-04-24T10:12:37;12.65;69.89
65876;HTU21D;52657;51.128;5.938;2023-04-24T10:15:03;12.74;69.62
65876;HTU21D;52657;51.128;5.938;2023-04-24T10:17:31;12.88;69.32
65876;HTU21D;52657;51.128;5.938;2023-04-24T10:20:00;13.05;69.23
65876;HTU21D;52657;51.128;5.938;2023-04-24T10:22:26;13.20;68.74
65876;HTU21D;52657;51.128;5.938;2023-04-24T10:24:55;13.43;68.84
65876;HTU21D;52657;51.128;5.938;2023-04-24T10:27:23;13.70;68.48
65876;HTU21D;52657;51.128;5.938;2023-04-24T10:29:53;13.96;67.30
65876;HTU21D;52657;51.128;5.938;2023-04-24T10:32:19;14.19;66.91
65876;HTU21D;52657;51.128;5.938;2023-04-24T10:34:44;14.35;66.01
65876;HTU21D;52657;51.128;5.938;2023-04-24T10:37:10;14.38;65.21
65876;HTU21D;52657;51.128;5.938;2023-04-24T10:39:36;14.47;65.56
65876;HTU21D;52657;51.128;5.938;2023-04-24T10:42:14;14.67;64.59
65876;HTU21D;52657;51.128;5.938;2023-04-24T10:44:47;14.87;64.16
65876;HTU21D;52657;51.128;5.938;2023-04-24T10:47:14;14.96;63.15
65876;HTU21D;52657;51.128;5.938;2023-04-24T10:49:40;14.95;62.72
65876;HTU21D;52657;51.128;5.938;2023-04-24T10:52:08;14.93;61.82
65876;HTU21D;52657;51.128;5.938;2023-04-24T10:54:44;14.77;61.42
65876;HTU21D;52657;51.128;5.938;2023-04-24T10:57:26;14.62;62.08
65876;HTU21D;52657;51.128;5.938;2023-04-24T11:00:18;14.51;62.11
65876;HTU21D;52657;51.128;5.938;2023-04-24T11:02:47;14.40;62.44
65876;HTU21D;52657;51.128;5.938;2023-04-24T11:05:19;14.29;60.85
65876;HTU21D;52657;51.128;5.938;2023-04-24T11:08:14;14.08;60.28
65876;HTU21D;52657;51.128;5.938;2023-04-24T11:10:46;13.90;59.75
65876;HTU21D;52657;51.128;5.938;2023-04-24T11:13:22;13.84;59.64
65876;HTU21D;52657;51.128;5.938;2023-04-24T11:18:59;13.78;58.54
65876;HTU21D;52657;51.128;5.938;2023-04-24T11:21:31;13.78;58.06
65876;HTU21D;52657;51.128;5.938;2023-04-24T11:23:57;13.85;58.20
65876;HTU21D;52657;51.128;5.938;2023-04-24T11:26:24;13.97;58.64
65876;HTU21D;52657;51.128;5.938;2023-04-24T11:29:07;14.11;58.41
65876;HTU21D;52657;51.128;5.938;2023-04-24T11:31:37;14.33;58.60
65876;HTU21D;52657;51.128;5.938;2023-04-24T11:34:11;14.49;57.98
65876;HTU21D;52657;51.128;5.938;2023-04-24T11:36:38;14.60;57.03
65876;HTU21D;52657;51.128;5.938;2023-04-24T11:39:04;14.62;56.14
65876;HTU21D;52657;51.128;5.938;2023-04-24T11:41:31;14.62;55.28
65876;HTU21D;52657;51.128;5.938;2023-04-24T11:43:57;14.62;55.37
65876;HTU21D;52657;51.128;5.938;2023-04-24T11:46:23;14.58;54.92
65876;HTU21D;52657;51.128;5.938;2023-04-24T11:48:49;14.63;55.31
65876;HTU21D;52657;51.128;5.938;2023-04-24T11:51:15;14.82;55.28
65876;HTU21D;52657;51.128;5.938;2023-04-24T11:53:40;14.99;54.23
65876;HTU21D;52657;51.128;5.938;2023-04-24T11:56:08;15.00;54.11
65876;HTU21D;52657;51.128;5.938;2023-04-24T11:58:40;15.06;54.10
65876;HTU21D;52657;51.128;5.938;2023-04-24T12:01:06;15.12;54.26
65876;HTU21D;52657;51.128;5.938;2023-04-24T12:03:31;15.10;53.82
65876;HTU21D;52657;51.128;5.938;2023-04-24T12:06:09;14.98;54.31
65876;HTU21D;52657;51.128;5.938;2023-04-24T12:08:36;14.93;54.55
65876;HTU21D;52657;51.128;5.938;2023-04-24T12:11:06;14.94;53.99
65876;HTU21D;52657;51.128;5.938;2023-04-24T12:13:33;14.88;53.69
65876;HTU21D;52657;51.128;5.938;2023-04-24T12:16:02;14.83;53.84
65876;HTU21D;52657;51.128;5.938;2023-04-24T12:18:28;14.88;53.99
65876;HTU21D;52657;51.128;5.938;2023-04-24T12:20:55;14.89;53.73
65876;HTU21D;52657;51.128;5.938;2023-04-24T12:23:43;14.95;53.81
65876;HTU21D;52657;51.128;5.938;2023-04-24T12:26:08;14.97;53.85
65876;HTU21D;52657;51.128;5.938;2023-04-24T12:28:38;14.97;53.85
65876;HTU21D;52657;51.128;5.938;2023-04-24T12:31:06;14.95;53.71
65876;HTU21D;52657;51.128;5.938;2023-04-24T12:33:34;14.94;53.49
65876;HTU21D;52657;51.128;5.938;2023-04-24T12:36:01;14.94;52.83
65876;HTU21D;52657;51.128;5.938;2023-04-24T12:38:29;15.01;53.39
65876;HTU21D;52657;51.128;5.938;2023-04-24T12:41:10;15.12;53.42
65876;HTU21D;52657;51.128;5.938;2023-04-24T12:43:37;15.15;53.20
65876;HTU21D;52657;51.128;5.938;2023-04-24T12:46:03;15.22;53.47
65876;HTU21D;52657;51.128;5.938;2023-04-24T12:48:30;15.37;53.73
65876;HTU21D;52657;51.128;5.938;2023-04-24T12:50:59;15.52;53.78
65876;HTU21D;52657;51.128;5.938;2023-04-24T12:53:28;15.49;52.98
65876;HTU21D;52657;51.128;5.938;2023-04-24T12:55:57;15.43;51.94
65876;HTU21D;52657;51.128;5.938;2023-04-24T12:58:23;15.31;51.36
65876;HTU21D;52657;51.128;5.938;2023-04-24T13:00:48;15.22;51.43
65876;HTU21D;52657;51.128;5.938;2023-04-24T13:03:14;15.15;51.45
65876;HTU21D;52657;51.128;5.938;2023-04-24T13:05:41;15.17;52.16
65876;HTU21D;52657;51.128;5.938;2023-04-24T13:08:07;15.24;51.91
65876;HTU21D;52657;51.128;5.938;2023-04-24T13:10:34;15.27;51.87
65876;HTU21D;52657;51.128;5.938;2023-04-24T13:12:59;15.24;51.76
65876;HTU21D;52657;51.128;5.938;2023-04-24T13:15:25;15.23;51.66
65876;HTU21D;52657;51.128;5.938;2023-04-24T13:17:51;15.13;51.65
65876;HTU21D;52657;51.128;5.938;2023-04-24T13:20:17;15.07;52.42
65876;HTU21D;52657;51.128;5.938;2023-04-24T13:22:43;15.13;52.47
65876;HTU21D;52657;51.128;5.938;2023-04-24T13:25:08;15.15;52.62
65876;HTU21D;52657;51.128;5.938;2023-04-24T13:27:37;15.14;52.14
65876;HTU21D;52657;51.128;5.938;2023-04-24T13:30:03;15.15;52.72
65876;HTU21D;52657;51.128;5.938;2023-04-24T13:32:29;15.18;51.91
65876;HTU21D;52657;51.128;5.938;2023-04-24T13:34:55;15.17;51.72
65876;HTU21D;52657;51.128;5.938;2023-04-24T13:37:21;15.23;51.53
65876;HTU21D;52657;51.128;5.938;2023-04-24T13:39:48;15.26;51.51
65876;HTU21D;52657;51.128;5.938;2023-04-24T13:42:13;15.37;51.71
65876;HTU21D;52657;51.128;5.938;2023-04-24T13:44:39;15.49;51.50
65876;HTU21D;52657;51.128;5.938;2023-04-24T13:47:05;15.65;51.45
65876;HTU21D;52657;51.128;5.938;2023-04-24T13:49:31;15.67;50.98
65876;HTU21D;52657;51.128;5.938;2023-04-24T13:51:56;15.70;50.61
65876;HTU21D;52657;51.128;5.938;2023-04-24T13:54:22;15.74;50.27
65876;HTU21D;52657;51.128;5.938;2023-04-24T13:56:51;15.83;50.68
65876;HTU21D;52657;51.128;5.938;2023-04-24T13:59:17;15.91;49.97
65876;HTU21D;52657;51.128;5.938;2023-04-24T14:01:42;15.93;49.85
65876;HTU21D;52657;51.128;5.938;2023-04-24T14:04:10;15.95;49.35
65876;HTU21D;52657;51.128;5.938;2023-04-24T14:06:36;15.95;49.45
65876;HTU21D;52657;51.128;5.938;2023-04-24T14:09:02;15.97;49.75
65876;HTU21D;52657;51.128;5.938;2023-04-24T14:11:28;16.05;49.57
65876;HTU21D;52657;51.128;5.938;2023-04-24T14:13:54;16.12;48.80
65876;HTU21D;52657;51.128;5.938;2023-04-24T14:16:22;16.16;49.10
65876;HTU21D;52657;51.128;5.938;2023-04-24T14:18:47;16.13;48.15
65876;HTU21D;52657;51.128;5.938;2023-04-24T14:21:13;16.15;48.34
65876;HTU21D;52657;51.128;5.938;2023-04-24T14:23:38;16.22;48.44
65876;HTU21D;52657;51.128;5.938;2023-04-24T14:26:04;16.29;47.92
65876;HTU21D;52657;51.128;5.938;2023-04-24T14:28:30;16.27;47.54
65876;HTU21D;52657;51.128;5.938;2023-04-24T14:30:57;16.26;47.00
65876;HTU21D;52657;51.128;5.938;2023-04-24T14:33:22;16.26;47.03
65876;HTU21D;52657;51.128;5.938;2023-04-24T14:35:48;16.31;47.04
65876;HTU21D;52657;51.128;5.938;2023-04-24T14:38:14;16.35;46.60
65876;HTU21D;52657;51.128;5.938;2023-04-24T14:40:40;16.33;46.09
65876;HTU21D;52657;51.128;5.938;2023-04-24T14:43:06;16.30;46.29
65876;HTU21D;52657;51.128;5.938;2023-04-24T14:45:32;16.34;46.35
65876;HTU21D;52657;51.128;5.938;2023-04-24T14:47:58;16.40;46.64
65876;HTU21D;52657;51.128;5.938;2023-04-24T14:50:24;16.39;45.18
65876;HTU21D;52657;51.128;5.938;2023-04-24T14:52:54;16.35;45.69
65876;HTU21D;52657;51.128;5.938;2023-04-24T14:55:20;16.33;45.35
65876;HTU21D;52657;51.128;5.938;2023-04-24T14:57:49;16.35;45.61
65876;HTU21D;52657;51.128;5.938;2023-04-24T15:00:15;16.33;45.73
65876;HTU21D;52657;51.128;5.938;2023-04-24T15:02:42;16.36;45.64
65876;HTU21D;52657;51.128;5.938;2023-04-24T15:05:10;16.39;45.86
65876;HTU21D;52657;51.128;5.938;2023-04-24T15:07:35;16.43;45.50
65876;HTU21D;52657;51.128;5.938;2023-04-24T15:10:03;16.45;45.61
65876;HTU21D;52657;51.128;5.938;2023-04-24T15:12:28;16.50;45.77
65876;HTU21D;52657;51.128;5.938;2023-04-24T15:14:54;16.54;45.90
65876;HTU21D;52657;51.128;5.938;2023-04-24T15:17:20;16.56;45.99
65876;HTU21D;52657;51.128;5.938;2023-04-24T15:19:46;16.47;46.25
65876;HTU21D;52657;51.128;5.938;2023-04-24T15:22:12;16.46;46.57